Airfield :
LOGIN :

Register | Disclaimer

   EN    FR    IT 

 










Legend :    VFR   Marginal VFR   IFR   Intensive IFR   Very Intensive IFR
Visi :
Ceiling :
>= 8 km
>= 3000ft
5 to 8 km
1000 to 3000 ft
1500m to 5 km
500 to 1000 ft
800 to 1500m
200 to 500 ft
< 800m
< 200 ft
Symbols :   Thunderstorms  Fog  Heavy snow  Heavy precipitations  Wind > 20 kt
SIGMETs :     Misc.  Thunderstorms  Icing  Turbulence  Mountain Waves  Volcanic Ashes






- Airport Elevation : -13 ft
- IATA code : LEY


EHLE - Lelystad

CURRENT METAR :
  • 081825Z AUTO 35006KT 9999 NCD 15/10 Q1023

EXPIRED METARs :
  • 081755Z AUTO 35007KT 9999 NSC 16/11 Q1023
  • 081725Z AUTO 35006KT 9999 NSC 17/11 Q1023
  • 081655Z AUTO 35008KT 320V020 9999 NSC 18/11 Q1023
  • 081625Z AUTO 35011KT 320V020 9999 NSC 18/10 Q1023
  • 081555Z AUTO 35009KT 9999 NSC 19/11 Q1023

TAF TAF EHLE
Valid from the 08 at 18:00 until the 10 at 00:00 UTC


081714Z 0818/0924 01008KT CAVOK
BECMG 0905/0908 10006KT
BECMG 0910/0913 02010KT
BECMG 0918/0921 06008KT



MET'MAP, your aeronautical weather chart ! - Copyright ORBIFLY December 2007 - Disclaimer

ORBIFLY MET'MAP TEAM :

Programming & Development : Alexandra Zaïnal
Concept & original design : Baudouin d'Aumeries
Assistance for programming : Marc-Olivier Méhu
Technical & hardware support : Manuel Goepfert

Contact : metmap@orbifly.com




SOURCES & CREDITS :

   NOAA